Aérodrome :
LOGIN :

S'inscrire | Disclaimer

   EN    FR    IT 

 










Légende :    VFR   VFR Marginal   IFR   IFR Intensif   IFR Très Intensif
Visi : 
Plafond : 
>= 8 km
>= 3000ft
5 à 8 km
1000 à 3000 ft
1500m à 5 km
500 à 1000 ft
800 à 1500m
200 à 500 ft
< 800m
< 200 ft
Symboles :   Orages  Brouillard  Fortes neiges  Fortes précipitations  Vent > 20 kt
SIGMETs :   Divers  Orages  Givrage  Turbulence  Onde Orograph.  Cendres Volcan.







- Altitude de l'aérodrome : 157 ft
- Code IATA : LIL
- Voir les cartes d'approche


LFQQ - Lille Lesquin

DERNIER METAR :
  • 240430Z AUTO 02009KT 9999 OVC041 07/04 Q1029 NOSIG

METARs EXPIRÉS :
  • 240400Z AUTO 02010KT 9999 OVC039 07/04 Q1029 TEMPO RA OVC013
  • 240330Z AUTO 02011KT 9999 FEW025 OVC038 07/04 Q1029 TEMPO RA OVC013
  • 240300Z AUTO 02011KT 9999 FEW026 OVC037 07/04 Q1029 TEMPO RA OVC013
  • 240230Z AUTO 02011KT 9999 -RA BKN024 OVC033 07/04 Q1029 TEMPO RA OVC013
  • 240200Z AUTO 02010KT 9999 FEW020 OVC035 07/04 Q1029 TEMPO RA OVC013

TAF TAF LFQQ
Valide du 24 à 00h jusqu'au 25 à 06h UTC


232300Z 2400/2506 01010KT 9999 OVC030
PROB30
TEMPO 2401/2405 RA OVC013
BECMG 2417/2419 VRB02KT
BECMG 2500/2503 30012KT
ATIS : +33 3 20 16 19 54
Pas de NOTAMs connus pour ce terrain.



MET'MAP, la Météo Aéronautique d'un coup d'oeil ! - Copyright ORBIFLY Décembre 2007 - Disclaimer

ORBIFLY MET'MAP TEAM :

Programmation & Développement : Alexandra Zaïnal
Conception & Développement : Baudouin d'Aumeries
Co-Programmation & Développement : Marc-Olivier Méhu
Soutien technique & logistique : Manuel Goepfert

Contact : metmap@orbifly.com




SOURCES & CREDITS :

   NOAA